Time;durP1;ratioP1;P1;durP2;ratioP2;P2;SDS_P1;SDS_P2;PMS_P1;PMS_P2;Temp;Humidity;BMP_temperature;BMP_pressure;BME280_temperature;BME280_humidity;BME280_pressure;Samples;Min_cycle;Max_cycle;Signal;HPM_P1;HPM_P2
2022/12/27 00:00:46;;;;;;;6.55;4.68;;;;;;;;;;4994436;28;20105;-63
2022/12/27 00:03:11;;;;;;;5.93;4.60;;;;;;;;;;4994701;28;20146;-64
2022/12/27 00:05:42;;;;;;;5.47;4.43;;;;;;;;;;4994606;28;20026;-63
2022/12/27 00:08:08;;;;;;;4.88;4.38;;;;;;;;;;4994197;28;20037;-64
2022/12/27 00:10:34;;;;;;;5.40;4.50;;;;;;;;;;4994277;28;20117;-63
2022/12/27 00:12:59;;;;;;;5.47;4.45;;;;;;;;;;4994071;28;20479;-64
2022/12/27 00:15:25;;;;;;;5.25;4.45;;;;;;;;;;4994247;28;20026;-63
2022/12/27 00:17:51;;;;;;;6.05;4.65;;;;;;;;;;4994148;28;20038;-64
2022/12/27 00:20:16;;;;;;;5.10;4.28;;;;;;;;;;4993859;28;20097;-63
2022/12/27 00:22:42;;;;;;;5.40;4.15;;;;;;;;;;4994269;28;20030;-64
2022/12/27 00:25:08;;;;;;;5.90;4.70;;;;;;;;;;4994225;28;20072;-63
2022/12/27 00:27:34;;;;;;;4.70;4.18;;;;;;;;;;4994104;28;20065;-65
2022/12/27 00:29:59;;;;;;;5.30;4.60;;;;;;;;;;4993919;28;20474;-63
2022/12/27 00:32:25;;;;;;;4.85;4.10;;;;;;;;;;4994412;28;20023;-63
2022/12/27 00:34:50;;;;;;;5.00;4.38;;;;;;;;;;4993676;28;20026;-63
2022/12/27 00:37:16;;;;;;;5.85;4.50;;;;;;;;;;4993730;28;20113;-64
2022/12/27 00:39:41;;;;;;;5.18;4.32;;;;;;;;;;4993736;28;20026;-64
2022/12/27 00:42:07;;;;;;;5.47;4.80;;;;;;;;;;4993656;28;20035;-63
2022/12/27 00:44:33;;;;;;;4.70;4.22;;;;;;;;;;4993600;28;20022;-64
2022/12/27 00:46:58;;;;;;;6.90;4.40;;;;;;;;;;4993488;28;20052;-63
2022/12/27 00:49:24;;;;;;;7.93;4.93;;;;;;;;;;4993413;28;20030;-63
2022/12/27 00:51:49;;;;;;;5.18;4.45;;;;;;;;;;4993819;28;20072;-64
2022/12/27 00:54:15;;;;;;;4.38;3.97;;;;;;;;;;4993409;28;20486;-64
2022/12/27 00:56:41;;;;;;;5.20;4.20;;;;;;;;;;4993054;28;20034;-63
2022/12/27 00:59:07;;;;;;;5.55;4.45;;;;;;;;;;4993438;28;20019;-63
2022/12/27 01:01:35;;;;;;;4.43;4.00;;;;;;;;;;4993331;28;20030;-63
2022/12/27 01:04:01;;;;;;;5.97;4.60;;;;;;;;;;4993391;28;20030;-64
2022/12/27 01:06:28;;;;;;;5.30;4.50;;;;;;;;;;4993280;28;20466;-63
2022/12/27 01:08:55;;;;;;;5.30;4.25;;;;;;;;;;4993256;28;20034;-64
2022/12/27 01:11:21;;;;;;;5.43;4.35;;;;;;;;;;4993475;28;20031;-63
2022/12/27 01:13:46;;;;;;;4.93;4.03;;;;;;;;;;4993148;28;20393;-64
2022/12/27 01:16:18;;;;;;;5.43;4.10;;;;;;;;;;4993349;28;20023;-63
2022/12/27 01:18:44;;;;;;;5.00;4.43;;;;;;;;;;4993514;28;20030;-64
2022/12/27 01:21:13;;;;;;;5.35;4.45;;;;;;;;;;4992959;28;20038;-63
2022/12/27 01:23:40;;;;;;;5.28;4.22;;;;;;;;;;4993070;28;20110;-63
2022/12/27 01:26:09;;;;;;;7.18;4.70;;;;;;;;;;4992940;28;20022;-63
2022/12/27 01:28:35;;;;;;;4.55;4.05;;;;;;;;;;4993058;28;20030;-64
2022/12/27 01:31:09;;;;;;;6.00;4.40;;;;;;;;;;4993305;28;20104;-63
2022/12/27 01:33:35;;;;;;;4.50;4.10;;;;;;;;;;4993009;28;20508;-64
2022/12/27 01:36:12;;;;;;;4.78;4.10;;;;;;;;;;4993016;28;20030;-63
2022/12/27 01:38:38;;;;;;;4.75;4.25;;;;;;;;;;4992955;28;20027;-64
2022/12/27 01:42:50;;;;;;;5.50;4.22;;;;;;;;;;4992986;28;20029;-64
2022/12/27 01:43:49;;;;;;;6.00;4.15;;;;;;;;;;4992943;28;20030;-63
2022/12/27 01:46:16;;;;;;;5.53;4.65;;;;;;;;;;4992777;28;20030;-63
2022/12/27 01:48:41;;;;;;;5.03;4.20;;;;;;;;;;4993087;28;20022;-64
2022/12/27 01:51:08;;;;;;;5.40;3.90;;;;;;;;;;4992901;28;20112;-63
2022/12/27 01:53:38;;;;;;;4.78;4.05;;;;;;;;;;4992697;28;20030;-64
2022/12/27 01:56:08;;;;;;;4.93;4.43;;;;;;;;;;4993161;28;20022;-64
2022/12/27 01:58:42;;;;;;;4.85;4.07;;;;;;;;;;4992756;28;20022;-64
2022/12/27 02:01:13;;;;;;;4.78;3.95;;;;;;;;;;4992649;28;20046;-64
2022/12/27 02:03:43;;;;;;;5.68;4.15;;;;;;;;;;4992796;28;20019;-64
2022/12/27 02:06:11;;;;;;;4.47;3.85;;;;;;;;;;4991463;28;20041;-64
2022/12/27 02:09:08;;;;;;;6.22;3.72;;;;;;;;;;4992351;28;20449;-63
2022/12/27 02:11:56;;;;;;;4.80;3.90;;;;;;;;;;4996556;28;20061;-63
2022/12/27 02:14:31;;;;;;;5.88;4.30;;;;;;;;;;4996229;28;20039;-64
2022/12/27 02:16:59;;;;;;;6.07;4.25;;;;;;;;;;4996724;28;20425;-64
2022/12/27 02:19:40;;;;;;;5.03;4.30;;;;;;;;;;4996330;28;20026;-64
2022/12/27 02:22:27;;;;;;;5.07;4.05;;;;;;;;;;4996183;28;20502;-64
2022/12/27 02:25:25;;;;;;;4.57;4.13;;;;;;;;;;4996342;28;20053;-63
2022/12/27 02:28:00;;;;;;;4.90;3.92;;;;;;;;;;4993917;28;20074;-64
2022/12/27 02:30:28;;;;;;;4.95;4.30;;;;;;;;;;4996198;28;20022;-64
2022/12/27 02:33:01;;;;;;;5.90;4.45;;;;;;;;;;4996448;28;20426;-64
2022/12/27 02:35:38;;;;;;;4.47;3.92;;;;;;;;;;4996353;28;20444;-65
2022/12/27 02:38:23;;;;;;;5.40;3.80;;;;;;;;;;4996279;28;20041;-64
2022/12/27 02:53:03;;;;;;;4.70;4.07;;;;;;;;;;4995767;28;20052;-63
2022/12/27 02:59:25;;;;;;;4.90;4.15;;;;;;;;;;4995765;28;20566;-64
2022/12/27 03:05:05;;;;;;;7.22;4.20;;;;;;;;;;4995864;28;20037;-64
2022/12/27 03:07:45;;;;;;;4.20;3.80;;;;;;;;;;4995477;28;20552;-64
2022/12/27 03:16:25;;;;;;;4.63;4.00;;;;;;;;;;4995442;28;20036;-63
2022/12/27 03:19:11;;;;;;;4.10;3.70;;;;;;;;;;4995542;28;20089;-63
2022/12/27 03:27:21;;;;;;;4.55;4.00;;;;;;;;;;4995143;28;20109;-63
2022/12/27 03:33:14;;;;;;;4.70;3.72;;;;;;;;;;4995330;28;20025;-63
2022/12/27 03:38:01;;;;;;;4.07;3.67;;;;;;;;;;4994988;28;20058;-64
2022/12/27 03:38:35;;;;;;;4.75;3.88;;;;;;;;;;4994970;28;20544;-64
2022/12/27 03:43:49;;;;;;;4.13;3.72;;;;;;;;;;4995117;28;20041;-63
2022/12/27 03:46:32;;;;;;;4.68;3.78;;;;;;;;;;4994648;28;20030;-63
2022/12/27 03:49:22;;;;;;;4.32;3.80;;;;;;;;;;4994944;28;20029;-64
2022/12/27 03:51:48;;;;;;;4.93;4.00;;;;;;;;;;4995040;28;20034;-64
2022/12/27 03:54:28;;;;;;;4.75;3.97;;;;;;;;;;4994468;28;20038;-63
2022/12/27 03:57:07;;;;;;;4.38;3.95;;;;;;;;;;4994664;28;20038;-64
2022/12/27 03:59:33;;;;;;;4.30;3.90;;;;;;;;;;4994780;28;20038;-64
2022/12/27 04:01:59;;;;;;;5.47;4.30;;;;;;;;;;4994615;28;20382;-64
2022/12/27 04:04:25;;;;;;;4.82;4.25;;;;;;;;;;4994647;28;20064;-64
2022/12/27 04:06:51;;;;;;;5.18;4.30;;;;;;;;;;4994344;28;20484;-63
2022/12/27 04:36:37;;;;;;;4.65;4.07;;;;;;;;;;4993765;28;20033;-63
2022/12/27 04:39:03;;;;;;;4.35;3.92;;;;;;;;;;4993996;28;20026;-63
2022/12/27 04:55:25;;;;;;;4.93;4.07;;;;;;;;;;4993873;28;20037;-63
2022/12/27 04:57:51;;;;;;;4.40;3.58;;;;;;;;;;4993723;28;20034;-64
2022/12/27 05:03:06;;;;;;;5.47;4.18;;;;;;;;;;4993804;28;20488;-64
2022/12/27 05:05:32;;;;;;;4.38;3.78;;;;;;;;;;4993332;28;20030;-64
2022/12/27 05:16:10;;;;;;;4.28;3.88;;;;;;;;;;4993506;28;20390;-63
2022/12/27 05:18:36;;;;;;;4.88;3.72;;;;;;;;;;4993148;28;20030;-63
2022/12/27 05:21:03;;;;;;;4.80;3.60;;;;;;;;;;4992907;28;20043;-64
2022/12/27 05:26:24;;;;;;;4.47;3.72;;;;;;;;;;4992984;28;20089;-63
2022/12/27 05:28:52;;;;;;;4.30;3.65;;;;;;;;;;4993359;28;20029;-64
2022/12/27 05:31:20;;;;;;;4.65;3.75;;;;;;;;;;4993038;28;20518;-64
2022/12/27 05:33:46;;;;;;;5.07;3.95;;;;;;;;;;4993238;28;20378;-63
2022/12/27 05:36:12;;;;;;;3.90;3.53;;;;;;;;;;4992932;28;20018;-63
2022/12/27 05:38:38;;;;;;;3.95;3.55;;;;;;;;;;4992982;28;20030;-64
2022/12/27 05:41:04;;;;;;;4.20;3.65;;;;;;;;;;4992925;28;20030;-64
2022/12/27 05:43:31;;;;;;;4.47;3.72;;;;;;;;;;4995324;28;20045;-63
2022/12/27 05:46:20;;;;;;;4.45;3.75;;;;;;;;;;4996953;28;20022;-64
2022/12/27 05:48:46;;;;;;;4.32;3.53;;;;;;;;;;4997133;28;20053;-64
2022/12/27 05:51:17;;;;;;;4.35;3.55;;;;;;;;;;4997114;28;20459;-63
2022/12/27 05:53:43;;;;;;;4.03;3.63;;;;;;;;;;4996940;28;20258;-63
2022/12/27 05:56:13;;;;;;;3.97;3.50;;;;;;;;;;4996603;28;20347;-64
2022/12/27 05:58:39;;;;;;;3.70;3.40;;;;;;;;;;4996867;28;20043;-65
2022/12/27 06:01:08;;;;;;;4.30;3.90;;;;;;;;;;4996978;28;20026;-63
2022/12/27 06:03:35;;;;;;;3.95;3.45;;;;;;;;;;4996924;28;20493;-63
2022/12/27 06:06:02;;;;;;;5.65;3.85;;;;;;;;;;4996645;28;20054;-63
2022/12/27 06:08:28;;;;;;;4.63;3.92;;;;;;;;;;4996639;28;20031;-64
2022/12/27 06:11:11;;;;;;;3.90;3.40;;;;;;;;;;4996624;28;20536;-64
2022/12/27 06:13:38;;;;;;;5.68;3.78;;;;;;;;;;4996440;28;20613;-63
2022/12/27 06:16:06;;;;;;;4.35;3.45;;;;;;;;;;4996439;28;20030;-64
2022/12/27 06:18:34;;;;;;;4.68;3.92;;;;;;;;;;4996654;28;20471;-63
2022/12/27 06:21:11;;;;;;;3.70;3.40;;;;;;;;;;4996253;28;20042;-63
2022/12/27 06:23:38;;;;;;;5.40;3.40;;;;;;;;;;4996265;28;20026;-66
2022/12/27 06:26:10;;;;;;;3.92;3.53;;;;;;;;;;4996585;28;20030;-64
2022/12/27 06:28:35;;;;;;;4.25;3.38;;;;;;;;;;4996188;28;20430;-64
2022/12/27 06:31:01;;;;;;;4.07;3.55;;;;;;;;;;4996377;28;20122;-64
2022/12/27 06:33:27;;;;;;;3.70;3.22;;;;;;;;;;4996098;28;20486;-64
2022/12/27 06:35:53;;;;;;;3.97;3.42;;;;;;;;;;4996167;28;20038;-64
2022/12/27 06:38:19;;;;;;;3.83;3.40;;;;;;;;;;4995841;28;20034;-64
2022/12/27 06:40:45;;;;;;;4.35;3.70;;;;;;;;;;4996071;28;20026;-64
2022/12/27 06:43:11;;;;;;;4.97;3.78;;;;;;;;;;4995891;28;20482;-64
2022/12/27 06:45:36;;;;;;;3.47;3.08;;;;;;;;;;4995882;28;20038;-64
2022/12/27 06:48:02;;;;;;;4.35;3.40;;;;;;;;;;4995721;28;20038;-64
2022/12/27 06:50:28;;;;;;;3.92;3.50;;;;;;;;;;4995778;28;20477;-64
2022/12/27 06:52:53;;;;;;;4.65;3.53;;;;;;;;;;4995746;28;20113;-64
2022/12/27 06:55:19;;;;;;;3.60;3.30;;;;;;;;;;4995296;28;20030;-64
2022/12/27 06:57:44;;;;;;;4.65;3.42;;;;;;;;;;4995637;28;20096;-64
2022/12/27 07:00:12;;;;;;;3.97;3.58;;;;;;;;;;4995622;28;20054;-64
2022/12/27 07:02:38;;;;;;;4.03;3.47;;;;;;;;;;4995887;28;20049;-64
2022/12/27 07:05:04;;;;;;;3.80;3.40;;;;;;;;;;4995554;28;20494;-64
2022/12/27 07:07:30;;;;;;;4.40;3.58;;;;;;;;;;4977975;28;20066;-64
2022/12/27 07:09:55;;;;;;;3.90;3.53;;;;;;;;;;4995477;28;20521;-64
2022/12/27 07:12:21;;;;;;;3.40;3.10;;;;;;;;;;4995371;28;20026;-64
2022/12/27 07:14:46;;;;;;;3.72;3.13;;;;;;;;;;4995689;28;20031;-64
2022/12/27 07:17:12;;;;;;;4.43;3.53;;;;;;;;;;4995548;28;20470;-64
2022/12/27 07:19:37;;;;;;;3.97;3.47;;;;;;;;;;4995280;28;20030;-64
2022/12/27 07:22:03;;;;;;;4.15;3.60;;;;;;;;;;4995043;28;20058;-64
2022/12/27 07:24:31;;;;;;;3.67;3.38;;;;;;;;;;4995185;28;20482;-64
2022/12/27 07:26:56;;;;;;;3.60;3.30;;;;;;;;;;4994966;28;20026;-63
2022/12/27 07:29:22;;;;;;;5.35;4.38;;;;;;;;;;4995337;28;20081;-63
2022/12/27 07:31:47;;;;;;;3.95;3.40;;;;;;;;;;4995110;28;20430;-63
2022/12/27 07:34:14;;;;;;;3.95;3.22;;;;;;;;;;4995079;28;20150;-64
2022/12/27 07:36:39;;;;;;;4.05;3.65;;;;;;;;;;4995296;28;20379;-63
2022/12/27 07:39:06;;;;;;;3.70;3.30;;;;;;;;;;4995064;28;20027;-64
2022/12/27 07:41:31;;;;;;;3.80;3.30;;;;;;;;;;4994900;28;20026;-63
2022/12/27 07:43:57;;;;;;;4.00;3.40;;;;;;;;;;4995026;28;20470;-63
2022/12/27 07:46:24;;;;;;;4.78;3.20;;;;;;;;;;4995037;28;20035;-64
2022/12/27 07:48:54;;;;;;;3.90;3.50;;;;;;;;;;4995231;28;20076;-64
2022/12/27 07:51:20;;;;;;;3.67;3.22;;;;;;;;;;4995119;28;20038;-64
2022/12/27 07:53:48;;;;;;;3.70;3.40;;;;;;;;;;4994998;28;20425;-64
2022/12/27 07:56:21;;;;;;;3.55;3.15;;;;;;;;;;4994526;28;20501;-64
2022/12/27 07:58:48;;;;;;;3.35;3.05;;;;;;;;;;4994678;28;20080;-67
2022/12/27 08:01:17;;;;;;;3.83;3.42;;;;;;;;;;4994396;28;20041;-65
2022/12/27 08:03:43;;;;;;;4.05;3.35;;;;;;;;;;4994530;28;20026;-64
2022/12/27 08:06:29;;;;;;;5.22;3.60;;;;;;;;;;4993375;28;20033;-64
2022/12/27 08:08:57;;;;;;;3.70;3.28;;;;;;;;;;4994475;28;20038;-64
2022/12/27 08:11:25;;;;;;;3.50;3.20;;;;;;;;;;4994168;28;20037;-64
2022/12/27 08:13:51;;;;;;;4.60;3.40;;;;;;;;;;4994239;28;20483;-65
2022/12/27 08:16:19;;;;;;;3.60;3.28;;;;;;;;;;4994238;28;20030;-66
2022/12/27 08:18:45;;;;;;;4.43;3.20;;;;;;;;;;4994205;28;20084;-64
2022/12/27 08:21:11;;;;;;;3.67;3.30;;;;;;;;;;4993997;28;20097;-65
2022/12/27 08:23:36;;;;;;;3.38;3.08;;;;;;;;;;4994346;28;20030;-64
2022/12/27 08:26:02;;;;;;;3.83;3.25;;;;;;;;;;4994272;28;20034;-65
2022/12/27 08:28:30;;;;;;;4.20;3.80;;;;;;;;;;4994176;28;20414;-64
2022/12/27 08:30:56;;;;;;;3.50;3.20;;;;;;;;;;4993806;28;20478;-65
2022/12/27 08:33:22;;;;;;;3.70;3.30;;;;;;;;;;4994216;28;20027;-65
2022/12/27 08:35:48;;;;;;;3.88;3.42;;;;;;;;;;4993937;28;20378;-65
2022/12/27 08:38:13;;;;;;;3.67;3.00;;;;;;;;;;4993636;28;20027;-65
2022/12/27 08:40:41;;;;;;;3.63;3.28;;;;;;;;;;4993845;28;20034;-65
2022/12/27 08:43:07;;;;;;;3.90;3.50;;;;;;;;;;4993712;28;20033;-65
2022/12/27 08:45:32;;;;;;;3.85;3.47;;;;;;;;;;4993697;28;20026;-65
2022/12/27 08:47:59;;;;;;;3.67;3.30;;;;;;;;;;4993781;28;20080;-65
2022/12/27 08:50:25;;;;;;;4.07;3.40;;;;;;;;;;4992374;28;20042;-65
2022/12/27 08:52:51;;;;;;;3.75;3.35;;;;;;;;;;4993471;28;20482;-65
2022/12/27 08:55:16;;;;;;;3.28;2.97;;;;;;;;;;4993609;28;20133;-65
2022/12/27 08:57:42;;;;;;;3.80;3.45;;;;;;;;;;4993465;28;20035;-65
2022/12/27 09:00:08;;;;;;;4.85;3.65;;;;;;;;;;4993381;28;20120;-64
2022/12/27 09:02:34;;;;;;;3.65;3.20;;;;;;;;;;4993453;28;20026;-65
2022/12/27 09:04:59;;;;;;;3.60;3.08;;;;;;;;;;4993352;28;20033;-64
2022/12/27 09:07:25;;;;;;;3.35;3.05;;;;;;;;;;4993195;28;20098;-66
2022/12/27 09:09:51;;;;;;;3.40;3.10;;;;;;;;;;4999996;28;20030;-63
2022/12/27 09:12:16;;;;;;;4.25;3.30;;;;;;;;;;5008356;28;20462;-68
2022/12/27 09:14:42;;;;;;;3.10;2.80;;;;;;;;;;5007896;28;20029;-66
2022/12/27 09:17:08;;;;;;;4.35;3.40;;;;;;;;;;5008019;28;20030;-64
2022/12/27 09:19:35;;;;;;;4.45;3.25;;;;;;;;;;4990430;28;20029;-68
2022/12/27 09:22:01;;;;;;;3.42;3.13;;;;;;;;;;5008127;28;20124;-66
2022/12/27 09:24:26;;;;;;;3.40;3.10;;;;;;;;;;5010282;28;20026;-64
2022/12/27 09:26:52;;;;;;;3.20;2.90;;;;;;;;;;5011496;28;20026;-68
2022/12/27 09:29:17;;;;;;;4.13;3.40;;;;;;;;;;5011285;28;20018;-67
2022/12/27 09:31:43;;;;;;;5.18;3.45;;;;;;;;;;5011319;28;20037;-66
2022/12/27 09:34:09;;;;;;;3.72;3.25;;;;;;;;;;5010921;28;20101;-64
2022/12/27 09:36:37;;;;;;;3.10;2.80;;;;;;;;;;5010275;28;20507;-64
2022/12/27 09:39:02;;;;;;;3.30;3.00;;;;;;;;;;5011475;28;20540;-64
2022/12/27 09:41:56;;;;;;;3.75;3.10;;;;;;;;;;5011373;28;20026;-63
2022/12/27 09:44:42;;;;;;;3.72;3.20;;;;;;;;;;5008866;28;20421;-63
2022/12/27 09:47:16;;;;;;;3.80;3.00;;;;;;;;;;5007558;28;20049;-62
2022/12/27 09:49:48;;;;;;;4.32;3.35;;;;;;;;;;5007950;28;20018;-64
2022/12/27 09:53:00;;;;;;;3.50;3.20;;;;;;;;;;5010955;28;20104;-64
2022/12/27 09:55:38;;;;;;;3.63;3.28;;;;;;;;;;4971406;28;20041;-64
2022/12/27 09:58:32;;;;;;;4.00;3.10;;;;;;;;;;5010949;28;20037;-65
2022/12/27 10:01:00;;;;;;;3.17;2.88;;;;;;;;;;5009584;28;20092;-63
2022/12/27 10:03:27;;;;;;;3.25;2.95;;;;;;;;;;5010787;28;20484;-65
2022/12/27 10:06:31;;;;;;;3.55;3.10;;;;;;;;;;4993583;28;20030;-63
2022/12/27 10:09:05;;;;;;;3.42;3.10;;;;;;;;;;5012349;28;20033;-69
2022/12/27 10:11:57;;;;;;;3.30;3.00;;;;;;;;;;5010586;28;20033;-65
2022/12/27 10:14:57;;;;;;;3.28;2.65;;;;;;;;;;5011952;28;20056;-65
2022/12/27 10:17:47;;;;;;;4.75;2.70;;;;;;;;;;5012170;28;20026;-69
2022/12/27 10:20:23;;;;;;;3.45;2.97;;;;;;;;;;5011383;28;20057;-65
2022/12/27 10:22:58;;;;;;;3.30;3.00;;;;;;;;;;5011935;28;20046;-66
2022/12/27 10:25:25;;;;;;;3.05;2.80;;;;;;;;;;5010238;28;20073;-66
2022/12/27 10:27:58;;;;;;;3.20;2.90;;;;;;;;;;5010181;28;20470;-65
2022/12/27 10:30:26;;;;;;;3.40;2.80;;;;;;;;;;4994337;28;20478;-67
2022/12/27 10:32:54;;;;;;;3.92;3.33;;;;;;;;;;4996103;28;20501;-64
2022/12/27 10:35:20;;;;;;;3.20;2.90;;;;;;;;;;4997713;28;20026;-65
2022/12/27 10:37:47;;;;;;;3.20;2.90;;;;;;;;;;5014566;28;20377;-64
2022/12/27 10:40:30;;;;;;;3.97;3.30;;;;;;;;;;5015778;28;20048;-64
2022/12/27 10:43:03;;;;;;;3.55;3.05;;;;;;;;;;5013976;28;20424;-64
2022/12/27 10:45:38;;;;;;;3.30;3.00;;;;;;;;;;5015603;28;20469;-64
2022/12/27 10:48:24;;;;;;;3.85;2.83;;;;;;;;;;5015328;28;20107;-65
2022/12/27 10:50:56;;;;;;;3.50;3.08;;;;;;;;;;5015401;28;20022;-65
2022/12/27 10:53:36;;;;;;;3.80;3.42;;;;;;;;;;5015711;28;20057;-66
2022/12/27 10:56:07;;;;;;;3.40;3.10;;;;;;;;;;5015377;28;20058;-65
2022/12/27 10:58:45;;;;;;;3.28;2.97;;;;;;;;;;5015137;28;20060;-65
2022/12/27 11:01:37;;;;;;;2.80;2.60;;;;;;;;;;5015516;28;20032;-64
2022/12/27 11:04:23;;;;;;;3.60;3.08;;;;;;;;;;5012254;28;20037;-67
2022/12/27 11:07:03;;;;;;;3.15;2.85;;;;;;;;;;5015150;28;20111;-65
2022/12/27 11:09:35;;;;;;;;;;;;;;;;;;5015303;28;20030;-64
2022/12/27 11:12:11;;;;;;;3.25;2.80;;;;;;;;;;5015009;28;20041;-64
2022/12/27 11:14:37;;;;;;;2.92;2.63;;;;;;;;;;5014872;28;20137;-64
2022/12/27 11:17:13;;;;;;;3.33;2.72;;;;;;;;;;5014984;28;20058;-64
2022/12/27 11:19:45;;;;;;;3.45;3.15;;;;;;;;;;5015002;28;20034;-64
2022/12/27 11:22:12;;;;;;;3.22;2.92;;;;;;;;;;5014724;28;20037;-64
2022/12/27 11:24:45;;;;;;;3.28;2.97;;;;;;;;;;5014701;28;20033;-64
2022/12/27 11:27:22;;;;;;;3.13;2.80;;;;;;;;;;5014722;28;20049;-64
2022/12/27 11:29:48;;;;;;;6.07;2.90;;;;;;;;;;5014524;28;20060;-63
2022/12/27 11:32:18;;;;;;;4.15;3.20;;;;;;;;;;5014555;28;20022;-64
2022/12/27 11:34:47;;;;;;;3.05;2.78;;;;;;;;;;5014727;28;20429;-65
2022/12/27 11:37:16;;;;;;;3.03;2.72;;;;;;;;;;5014443;28;20030;-64
2022/12/27 11:39:45;;;;;;;2.65;2.45;;;;;;;;;;5014646;28;20033;-65
2022/12/27 11:42:24;;;;;;;3.05;2.75;;;;;;;;;;5014197;28;20378;-64
2022/12/27 11:45:14;;;;;;;3.05;2.75;;;;;;;;;;5014552;28;20110;-65
2022/12/27 11:47:46;;;;;;;3.15;2.85;;;;;;;;;;5012760;28;20037;-65
2022/12/27 11:50:38;;;;;;;2.70;2.50;;;;;;;;;;5014069;28;20050;-65
2022/12/27 11:53:41;;;;;;;2.80;2.60;;;;;;;;;;5013892;28;20017;-65
2022/12/27 11:56:36;;;;;;;2.88;2.63;;;;;;;;;;5012065;28;20117;-65
2022/12/27 11:59:31;;;;;;;3.38;2.47;;;;;;;;;;5007716;28;20030;-65
2022/12/27 12:02:03;;;;;;;3.13;2.60;;;;;;;;;;5013148;28;20037;-65
2022/12/27 12:05:02;;;;;;;2.92;2.63;;;;;;;;;;5012639;28;20053;-66
2022/12/27 12:07:39;;;;;;;2.72;2.47;;;;;;;;;;5014001;28;20038;-64
2022/12/27 12:10:26;;;;;;;2.78;2.58;;;;;;;;;;5014177;28;20034;-64
2022/12/27 12:13:44;;;;;;;2.92;2.63;;;;;;;;;;5013947;28;20072;-64
2022/12/27 12:16:51;;;;;;;3.00;2.70;;;;;;;;;;4979319;28;20120;-64
2022/12/27 12:19:43;;;;;;;2.80;2.60;;;;;;;;;;4986714;28;20053;-64
2022/12/27 12:22:41;;;;;;;2.75;2.55;;;;;;;;;;5005411;28;20046;-64
2022/12/27 12:25:44;;;;;;;3.00;2.70;;;;;;;;;;5013955;28;20416;-65
2022/12/27 12:28:34;;;;;;;3.22;2.65;;;;;;;;;;5013342;28;20091;-64
2022/12/27 12:31:18;;;;;;;2.90;2.60;;;;;;;;;;5013628;28;20026;-66
2022/12/27 12:34:13;;;;;;;2.50;2.30;;;;;;;;;;5013549;28;20028;-64
2022/12/27 12:37:07;;;;;;;2.97;2.33;;;;;;;;;;5011349;28;20033;-65
2022/12/27 12:39:57;;;;;;;2.65;2.42;;;;;;;;;;5013137;28;20029;-64
2022/12/27 12:42:33;;;;;;;2.75;2.55;;;;;;;;;;5013516;28;20032;-64
2022/12/27 12:45:33;;;;;;;2.78;2.58;;;;;;;;;;5013309;28;20029;-64
2022/12/27 12:48:15;;;;;;;;;;;;;;;;;;5011898;28;20025;-64
2022/12/27 12:51:08;;;;;;;2.30;2.10;;;;;;;;;;5013297;28;19925;-64
2022/12/27 12:53:49;;;;;;;2.70;2.50;;;;;;;;;;5012998;28;20065;-64
2022/12/27 12:56:40;;;;;;;2.67;2.45;;;;;;;;;;5013161;28;20034;-63
2022/12/27 12:59:24;;;;;;;2.63;2.42;;;;;;;;;;5012971;28;20030;-64
2022/12/27 13:01:58;;;;;;;2.80;2.60;;;;;;;;;;5013084;28;20367;-63
2022/12/27 13:04:40;;;;;;;2.60;2.40;;;;;;;;;;5013307;28;20056;-64
2022/12/27 13:07:24;;;;;;;3.03;2.60;;;;;;;;;;5013007;28;20404;-64
2022/12/27 13:10:16;;;;;;;3.10;2.72;;;;;;;;;;5012749;28;20029;-64
2022/12/27 13:13:16;;;;;;;3.40;2.67;;;;;;;;;;5012058;28;20092;-64
2022/12/27 13:15:57;;;;;;;;;;;;;;;;;;5013195;28;20117;-64
2022/12/27 13:18:25;;;;;;;2.60;2.40;;;;;;;;;;5012533;28;19920;-64
2022/12/27 13:21:03;;;;;;;2.88;2.47;;;;;;;;;;5012607;28;20053;-64
2022/12/27 13:23:55;;;;;;;2.60;2.40;;;;;;;;;;5012578;28;20033;-64
2022/12/27 13:26:26;;;;;;;3.50;2.50;;;;;;;;;;5012874;28;20082;-64
2022/12/27 13:29:24;;;;;;;3.55;2.55;;;;;;;;;;5012670;28;20026;-64
2022/12/27 13:32:05;;;;;;;2.75;2.45;;;;;;;;;;5012720;28;20026;-64
2022/12/27 13:34:41;;;;;;;2.97;2.70;;;;;;;;;;5012538;28;20038;-64
2022/12/27 13:37:31;;;;;;;3.30;2.58;;;;;;;;;;5012343;28;20026;-63
2022/12/27 13:40:22;;;;;;;4.82;2.58;;;;;;;;;;5012649;28;20061;-63
2022/12/27 13:43:45;;;;;;;2.50;2.30;;;;;;;;;;5012379;28;20417;-65
2022/12/27 13:46:29;;;;;;;2.60;2.40;;;;;;;;;;4913704;29;20373;-63
2022/12/27 13:49:00;;;;;;;3.42;2.45;;;;;;;;;;4913809;29;20029;-65
2022/12/27 13:51:42;;;;;;;3.03;2.72;;;;;;;;;;4976054;28;20111;-64
2022/12/27 13:54:45;;;;;;;2.90;2.60;;;;;;;;;;5012310;28;20122;-64
2022/12/27 13:57:37;;;;;;;2.63;2.42;;;;;;;;;;5010857;28;20058;-64
2022/12/27 14:00:16;;;;;;;2.58;2.38;;;;;;;;;;5011106;28;20034;-64
2022/12/27 14:03:08;;;;;;;2.72;2.53;;;;;;;;;;5010694;28;20528;-63
2022/12/27 14:05:39;;;;;;;2.42;2.22;;;;;;;;;;5014440;28;20058;-64
2022/12/27 14:08:27;;;;;;;2.70;2.50;;;;;;;;;;5014826;28;20078;-64
2022/12/27 14:10:56;;;;;;;2.85;2.55;;;;;;;;;;5014484;28;20481;-63
2022/12/27 14:13:31;;;;;;;2.50;2.30;;;;;;;;;;5014306;28;20076;-65
2022/12/27 14:16:30;;;;;;;2.60;2.40;;;;;;;;;;5014146;28;20033;-64
2022/12/27 14:19:05;;;;;;;2.97;2.67;;;;;;;;;;5014506;28;20045;-63
2022/12/27 14:22:01;;;;;;;2.85;2.30;;;;;;;;;;5012278;28;20061;-63
2022/12/27 14:24:52;;;;;;;3.10;2.80;;;;;;;;;;4994931;28;20077;-63
2022/12/27 14:27:48;;;;;;;2.63;2.42;;;;;;;;;;4994501;28;20073;-63
2022/12/27 14:30:39;;;;;;;2.70;2.50;;;;;;;;;;4994661;28;20500;-63
2022/12/27 14:33:30;;;;;;;2.80;2.60;;;;;;;;;;4994350;28;20034;-63
2022/12/27 14:36:26;;;;;;;2.70;2.50;;;;;;;;;;4994541;28;20030;-64
2022/12/27 14:39:03;;;;;;;2.55;2.35;;;;;;;;;;4976893;28;20469;-63
2022/12/27 14:42:04;;;;;;;2.92;2.63;;;;;;;;;;4993335;28;20031;-63
2022/12/27 14:45:08;;;;;;;2.60;2.40;;;;;;;;;;4947192;28;20442;-63
2022/12/27 14:47:58;;;;;;;2.40;2.20;;;;;;;;;;4993237;28;20422;-63
2022/12/27 14:50:45;;;;;;;2.25;2.10;;;;;;;;;;4994031;28;20070;-64
2022/12/27 14:53:33;;;;;;;2.60;2.40;;;;;;;;;;5001701;28;20037;-64
2022/12/27 14:56:21;;;;;;;2.50;2.30;;;;;;;;;;4999532;28;20044;-64
2022/12/27 14:59:26;;;;;;;2.28;2.08;;;;;;;;;;5013064;28;20034;-64
2022/12/27 15:02:17;;;;;;;2.75;2.55;;;;;;;;;;5013613;28;20036;-64
2022/12/27 15:05:02;;;;;;;4.10;2.45;;;;;;;;;;5013499;28;20738;-64
2022/12/27 15:07:35;;;;;;;3.92;2.72;;;;;;;;;;5013589;28;20069;-64
2022/12/27 15:10:04;;;;;;;2.33;2.13;;;;;;;;;;5013558;28;20084;-64
2022/12/27 15:13:00;;;;;;;2.75;2.55;;;;;;;;;;5012903;28;20029;-63
2022/12/27 15:15:47;;;;;;;2.50;2.30;;;;;;;;;;5012869;28;20029;-64
2022/12/27 15:18:38;;;;;;;2.55;2.35;;;;;;;;;;5013432;28;20065;-63
2022/12/27 15:21:18;;;;;;;4.45;2.50;;;;;;;;;;5013103;28;20521;-66
2022/12/27 15:23:54;;;;;;;3.15;2.40;;;;;;;;;;5013267;28;20076;-63
2022/12/27 15:26:32;;;;;;;2.40;2.10;;;;;;;;;;5013241;28;20038;-63
2022/12/27 15:29:22;;;;;;;2.70;2.50;;;;;;;;;;5013478;28;20026;-63
2022/12/27 15:32:01;;;;;;;2.53;2.33;;;;;;;;;;5013138;28;20068;-63
2022/12/27 15:34:29;;;;;;;2.50;2.20;;;;;;;;;;5013357;28;20057;-63
2022/12/27 15:36:55;;;;;;;3.38;2.88;;;;;;;;;;5013115;28;20061;-63
2022/12/27 15:39:33;;;;;;;2.30;2.10;;;;;;;;;;5012884;28;20062;-63
2022/12/27 15:42:32;;;;;;;2.47;2.28;;;;;;;;;;5013339;28;20026;-63
2022/12/27 15:45:29;;;;;;;2.30;2.10;;;;;;;;;;5012922;28;20021;-63
2022/12/27 15:48:00;;;;;;;2.60;2.30;;;;;;;;;;5012811;28;20346;-63
2022/12/27 15:50:58;;;;;;;2.33;2.17;;;;;;;;;;5011054;28;20045;-63
2022/12/27 15:54:06;;;;;;;3.40;2.50;;;;;;;;;;4990633;28;20042;-63
2022/12/27 15:56:36;;;;;;;2.88;2.42;;;;;;;;;;5012613;28;20109;-63
2022/12/27 15:59:29;;;;;;;3.60;2.73;;;;;;;;;;5012825;28;20108;-63
2022/12/27 16:02:16;;;;;;;2.53;2.33;;;;;;;;;;5012591;28;20259;-63
2022/12/27 16:04:57;;;;;;;2.60;2.40;;;;;;;;;;5012327;28;20030;-64
2022/12/27 16:07:57;;;;;;;2.58;2.22;;;;;;;;;;5012461;28;20022;-63
2022/12/27 16:10:34;;;;;;;3.17;2.50;;;;;;;;;;5012449;28;20030;-64
2022/12/27 16:13:11;;;;;;;2.40;2.20;;;;;;;;;;5012436;28;20268;-63
2022/12/27 16:15:46;;;;;;;2.70;2.38;;;;;;;;;;5012330;28;20034;-62
2022/12/27 16:18:17;;;;;;;2.80;2.53;;;;;;;;;;5012632;28;20034;-63
2022/12/27 16:21:04;;;;;;;2.50;2.30;;;;;;;;;;5012110;28;20038;-63
2022/12/27 16:23:32;;;;;;;9.02;2.67;;;;;;;;;;5012054;28;20026;-63
2022/12/27 16:26:27;;;;;;;3.25;2.67;;;;;;;;;;5012192;28;20026;-63
2022/12/27 16:28:58;;;;;;;3.65;2.45;;;;;;;;;;4990005;28;20038;-66
2022/12/27 16:31:27;;;;;;;2.65;2.45;;;;;;;;;;5009311;28;20095;-65
2022/12/27 16:33:58;;;;;;;3.00;2.35;;;;;;;;;;5009709;28;20057;-62
2022/12/27 16:36:33;;;;;;;4.35;3.50;;;;;;;;;;5011795;28;20026;-65
2022/12/27 16:39:10;;;;;;;3.22;2.92;;;;;;;;;;4994244;28;20030;-65
2022/12/27 16:41:54;;;;;;;3.50;2.70;;;;;;;;;;5011900;28;20033;-66
2022/12/27 16:44:23;;;;;;;8.25;2.42;;;;;;;;;;5011925;28;20026;-67
2022/12/27 16:46:56;;;;;;;4.03;2.85;;;;;;;;;;5011743;28;20030;-66
2022/12/27 16:50:04;;;;;;;3.45;2.67;;;;;;;;;;5011978;28;20421;-66
2022/12/27 16:52:35;;;;;;;4.65;2.90;;;;;;;;;;5012055;28;20058;-64
2022/12/27 16:55:23;;;;;;;4.00;2.70;;;;;;;;;;5011607;28;20034;-65
2022/12/27 16:57:49;;;;;;;7.10;3.00;;;;;;;;;;5011565;28;20032;-64
2022/12/27 17:00:25;;;;;;;5.85;3.13;;;;;;;;;;5011560;28;20441;-65
2022/12/27 17:02:50;;;;;;;3.95;3.10;;;;;;;;;;5011827;28;20383;-65